Time;durP1;ratioP1;P1;durP2;ratioP2;P2;SDS_P1;SDS_P2;PMS_P1;PMS_P2;Temp;Humidity;BMP_temperature;BMP_pressure;BME280_temperature;BME280_humidity;BME280_pressure;Samples;Min_cycle;Max_cycle;Signal;HPM_P1;HPM_P2
2024/01/06 00:00:26;;;;;;;6.47;1.63;;;24.30;61.20;;;;;;5056070;28;20182;-70
2024/01/06 00:02:53;;;;;;;7.93;1.90;;;24.30;61.70;;;;;;5068269;28;20237;-70
2024/01/06 00:05:20;;;;;;;9.63;1.80;;;24.30;61.60;;;;;;5053123;28;20264;-70
2024/01/06 00:07:48;;;;;;;9.67;1.83;;;24.30;61.60;;;;;;5052922;28;20574;-71
2024/01/06 00:10:15;;;;;;;8.17;1.90;;;24.30;61.30;;;;;;5057928;28;20698;-71
2024/01/06 00:12:42;;;;;;;10.30;2.43;;;24.20;61.80;;;;;;5061852;28;20234;-72
2024/01/06 00:15:10;;;;;;;9.30;2.30;;;24.10;62.30;;;;;;5059488;28;20210;-71
2024/01/06 00:17:38;;;;;;;9.57;2.10;;;24.10;62.90;;;;;;5063248;28;20175;-71
2024/01/06 00:20:06;;;;;;;8.37;2.00;;;24.10;63.40;;;;;;5054159;28;20171;-71
2024/01/06 00:22:33;;;;;;;10.00;2.40;;;24.20;63.60;;;;;;5055704;28;20186;-71
2024/01/06 00:25:01;;;;;;;6.67;2.13;;;24.30;63.80;;;;;;5062049;28;20183;-72
2024/01/06 00:27:28;;;;;;;9.07;1.80;;;24.20;62.10;;;;;;5056326;28;20189;-72
2024/01/06 00:29:55;;;;;;;10.20;1.97;;;24.10;62.00;;;;;;5050037;28;20168;-71
2024/01/06 00:32:23;;;;;;;8.70;1.90;;;24.30;61.90;;;;;;5059132;28;20271;-71
2024/01/06 00:34:50;;;;;;;10.57;2.17;;;24.30;61.70;;;;;;5054995;28;20194;-71
2024/01/06 00:37:17;;;;;;;9.93;2.10;;;24.30;60.40;;;;;;5056085;28;20183;-71
2024/01/06 00:39:44;;;;;;;9.50;2.00;;;24.30;61.30;;;;;;5056163;28;20226;-70
2024/01/06 00:42:12;;;;;;;8.53;1.67;;;24.60;59.90;;;;;;5065661;28;20226;-71
2024/01/06 00:44:39;;;;;;;11.27;1.93;;;24.60;58.10;;;;;;5055784;28;20180;-70
2024/01/06 00:47:07;;;;;;;10.13;1.60;;;24.80;58.60;;;;;;5065701;28;20187;-71
2024/01/06 00:49:34;;;;;;;7.77;1.47;;;25.50;57.40;;;;;;5066058;28;20192;-71
2024/01/06 00:52:01;;;;;;;8.20;1.77;;;25.80;55.00;;;;;;5058838;28;20263;-72
2024/01/06 00:54:29;;;;;;;11.37;1.97;;;26.40;53.50;;;;;;5063338;28;20187;-71
2024/01/06 00:56:56;;;;;;;7.33;1.80;;;27.00;53.80;;;;;;5064776;28;20233;-71
2024/01/06 00:59:23;;;;;;;7.33;1.90;;;27.00;52.80;;;;;;5062610;28;20549;-71
2024/01/06 01:01:51;;;;;;;5.80;1.53;;;26.80;53.00;;;;;;5061066;28;20256;-73
2024/01/06 01:04:18;;;;;;;7.80;1.70;;;26.90;53.30;;;;;;5062624;28;20187;-71
2024/01/06 01:06:45;;;;;;;9.37;1.87;;;26.70;53.10;;;;;;5055614;28;20314;-71
2024/01/06 01:09:14;;;;;;;8.47;1.97;;;26.50;53.60;;;;;;5054017;28;20217;-71
2024/01/06 01:11:42;;;;;;;7.27;1.70;;;26.70;54.30;;;;;;5066023;28;20187;-71
2024/01/06 01:14:09;;;;;;;7.60;1.70;;;26.30;55.20;;;;;;5060833;28;20820;-71
2024/01/06 01:16:36;;;;;;;12.47;1.80;;;26.60;55.40;;;;;;5063181;28;20191;-71
2024/01/06 01:19:04;;;;;;;11.23;1.80;;;26.30;55.20;;;;;;5062921;28;20689;-71
2024/01/06 01:21:31;;;;;;;8.67;2.07;;;26.10;55.30;;;;;;5060660;28;20180;-71
2024/01/06 01:23:58;;;;;;;8.57;2.00;;;26.10;55.80;;;;;;5057701;28;20183;-72
2024/01/06 01:26:26;;;;;;;5.53;1.57;;;26.00;55.80;;;;;;5059732;28;20224;-70
2024/01/06 01:28:53;;;;;;;10.73;1.77;;;25.80;53.90;;;;;;5063969;28;20590;-71
2024/01/06 01:31:20;;;;;;;7.10;1.70;;;25.70;56.80;;;;;;5058287;28;20238;-71
2024/01/06 01:33:47;;;;;;;9.77;1.90;;;25.70;56.90;;;;;;5061345;28;20242;-71
2024/01/06 01:36:15;;;;;;;8.67;1.97;;;25.80;56.60;;;;;;5051683;28;20645;-72
2024/01/06 01:38:42;;;;;;;8.50;1.80;;;25.80;55.80;;;;;;5040857;28;20182;-71
2024/01/06 01:41:09;;;;;;;8.43;1.67;;;25.70;55.60;;;;;;5056117;28;20707;-70
2024/01/06 01:43:37;;;;;;;8.30;1.60;;;25.40;54.40;;;;;;5033897;28;20287;-71
2024/01/06 01:46:05;;;;;;;11.93;1.80;;;25.30;55.90;;;;;;5035127;28;20218;-72
2024/01/06 01:48:34;;;;;;;10.00;1.80;;;25.50;55.60;;;;;;5044459;28;20212;-73
2024/01/06 01:51:01;;;;;;;7.17;1.60;;;25.10;55.80;;;;;;5032747;28;20537;-69
2024/01/06 01:53:30;;;;;;;6.27;1.40;;;25.00;56.90;;;;;;5036615;28;20195;-71
2024/01/06 01:55:57;;;;;;;6.83;1.93;;;25.00;57.00;;;;;;5033774;28;20186;-69
2024/01/06 01:58:25;;;;;;;9.43;2.30;;;25.00;56.80;;;;;;5033336;28;20188;-72
2024/01/06 02:00:52;;;;;;;10.30;2.37;;;25.10;56.40;;;;;;5033967;28;20555;-71
2024/01/06 02:03:20;;;;;;;6.53;1.83;;;25.20;56.10;;;;;;5041192;28;20238;-73
2024/01/06 02:05:48;;;;;;;7.33;1.70;;;25.40;56.10;;;;;;5041473;28;20195;-72
2024/01/06 02:08:15;;;;;;;6.57;1.83;;;25.60;54.60;;;;;;5042229;28;20254;-71
2024/01/06 02:10:42;;;;;;;7.17;1.60;;;25.90;54.50;;;;;;5041412;28;20543;-68
2024/01/06 02:13:11;;;;;;;6.07;1.53;;;26.20;53.30;;;;;;5031531;28;20180;-71
2024/01/06 02:15:39;;;;;;;8.83;2.13;;;26.60;52.30;;;;;;5032995;28;20926;-72
2024/01/06 02:18:06;;;;;;;6.80;1.57;;;26.80;52.60;;;;;;5044738;28;20189;-71
2024/01/06 02:20:34;;;;;;;6.10;1.57;;;27.30;51.10;;;;;;5041014;28;20184;-70
2024/01/06 02:23:01;;;;;;;8.33;1.60;;;27.20;50.00;;;;;;5038918;28;20184;-70
2024/01/06 02:25:29;;;;;;;7.40;1.47;;;27.30;49.40;;;;;;5032988;28;20255;-70
2024/01/06 02:27:56;;;;;;;6.50;1.60;;;27.30;50.60;;;;;;5038383;28;20655;-71
2024/01/06 02:30:24;;;;;;;6.00;1.60;;;27.90;48.10;;;;;;5040229;28;20646;-72
2024/01/06 02:32:51;;;;;;;8.30;1.60;;;28.30;47.70;;;;;;5034045;28;20211;-71
2024/01/06 02:35:19;;;;;;;7.57;1.83;;;28.40;47.40;;;;;;5035186;28;20181;-69
2024/01/06 02:37:46;;;;;;;7.47;1.97;;;27.80;47.80;;;;;;5031875;28;20643;-71
2024/01/06 02:40:14;;;;;;;6.43;1.83;;;27.90;50.30;;;;;;5038099;28;20548;-70
2024/01/06 02:42:42;;;;;;;5.37;1.60;;;27.90;47.90;;;;;;5059622;28;20231;-70
2024/01/06 02:45:09;;;;;;;5.97;1.63;;;27.90;48.40;;;;;;5066560;28;20183;-72
2024/01/06 02:47:37;;;;;;;6.23;1.40;;;27.80;48.30;;;;;;5064147;28;20219;-73
2024/01/06 02:50:05;;;;;;;6.87;1.60;;;28.00;47.50;;;;;;5067618;28;20175;-72
2024/01/06 02:52:32;;;;;;;5.83;1.40;;;28.30;46.40;;;;;;5066450;28;20190;-72
2024/01/06 02:55:00;;;;;;;5.23;1.60;;;28.20;46.60;;;;;;5058526;28;20242;-71
2024/01/06 02:57:31;;;;;;;7.97;1.90;;;28.20;46.60;;;;;;5061775;28;20183;-70
2024/01/06 02:59:58;;;;;;;4.43;1.10;;;28.30;47.00;;;;;;5053815;28;20659;-71
2024/01/06 03:02:29;;;;;;;4.50;1.37;;;28.20;44.50;;;;;;5038471;28;20184;-71
2024/01/06 03:04:56;;;;;;;6.67;1.40;;;28.40;45.70;;;;;;5046282;28;20183;-72
2024/01/06 03:07:24;;;;;;;3.60;1.20;;;28.60;45.70;;;;;;5053353;28;20227;-72
2024/01/06 03:09:51;;;;;;;4.80;1.57;;;28.50;44.70;;;;;;5061669;28;20179;-72
2024/01/06 03:12:18;;;;;;;6.43;1.60;;;28.80;43.90;;;;;;5046261;28;20177;-71
2024/01/06 03:14:46;;;;;;;7.63;1.70;;;28.80;44.10;;;;;;5053205;28;20182;-72
2024/01/06 03:17:13;;;;;;;2.53;1.17;;;29.00;44.60;;;;;;5058413;28;20537;-72
2024/01/06 03:19:40;;;;;;;5.70;1.30;;;28.70;44.00;;;;;;5057964;28;20179;-72
2024/01/06 03:22:08;;;;;;;4.13;1.50;;;29.00;43.90;;;;;;5052452;28;20225;-72
2024/01/06 03:24:35;;;;;;;4.85;1.33;;;29.20;43.70;;;;;;5055585;28;20171;-71
2024/01/06 03:27:02;;;;;;;5.93;1.10;;;29.30;42.90;;;;;;5049385;28;20513;-71
2024/01/06 03:29:29;;;;;;;5.40;1.43;;;28.90;44.50;;;;;;5058362;28;20184;-72
2024/01/06 03:31:57;;;;;;;6.50;1.60;;;29.10;43.30;;;;;;5054089;28;20703;-73
2024/01/06 03:34:24;;;;;;;6.27;1.80;;;28.50;44.10;;;;;;5051885;28;20191;-70
2024/01/06 03:36:52;;;;;;;5.63;1.30;;;28.70;45.30;;;;;;5055074;28;20184;-72
2024/01/06 03:39:19;;;;;;;4.57;1.37;;;28.70;43.90;;;;;;5052987;28;20181;-70
2024/01/06 03:41:46;;;;;;;5.87;1.30;;;28.30;45.10;;;;;;5053747;28;20227;-72
2024/01/06 03:44:14;;;;;;;4.63;1.50;;;27.70;46.60;;;;;;5050030;28;20184;-72
2024/01/06 03:46:41;;;;;;;2.77;1.20;;;28.20;45.10;;;;;;5043185;28;20184;-72
2024/01/06 03:49:09;;;;;;;5.40;1.27;;;28.80;44.40;;;;;;5040792;28;20220;-70
2024/01/06 03:51:36;;;;;;;4.43;1.30;;;28.60;45.20;;;;;;5056934;28;20183;-71
2024/01/06 03:54:03;;;;;;;6.13;1.77;;;28.90;45.00;;;;;;5030430;28;20177;-69
2024/01/06 03:56:31;;;;;;;4.90;1.07;;;29.10;44.90;;;;;;5051654;28;20188;-69
2024/01/06 03:58:58;;;;;;;5.77;1.27;;;28.70;44.60;;;;;;5052577;28;20658;-70
2024/01/06 04:01:25;;;;;;;7.57;1.17;;;29.30;43.90;;;;;;5052229;28;20183;-70
2024/01/06 04:03:52;;;;;;;3.47;1.08;;;29.30;45.40;;;;;;5062647;28;20192;-70
2024/01/06 04:06:20;;;;;;;5.93;1.40;;;29.60;43.70;;;;;;5047266;28;20259;-70
2024/01/06 04:08:47;;;;;;;4.97;1.60;;;29.10;45.20;;;;;;5056883;28;20281;-70
2024/01/06 04:11:14;;;;;;;5.83;1.33;;;29.30;45.10;;;;;;5053207;28;20272;-71
2024/01/06 04:13:42;;;;;;;5.15;1.42;;;29.00;45.40;;;;;;5059227;28;20184;-70
2024/01/06 04:16:09;;;;;;;3.58;1.58;;;29.30;45.20;;;;;;5056769;28;20241;-70
2024/01/06 04:18:36;;;;;;;7.93;1.73;;;29.50;45.40;;;;;;5029607;28;20184;-70
2024/01/06 04:21:04;;;;;;;9.50;1.90;;;29.30;44.80;;;;;;5048907;28;20653;-72
2024/01/06 04:23:32;;;;;;;7.80;1.80;;;29.40;45.20;;;;;;5055012;28;20168;-72
2024/01/06 04:25:59;;;;;;;10.80;1.80;;;29.40;44.80;;;;;;5055329;28;20916;-71
2024/01/06 04:28:27;;;;;;;7.75;1.70;;;29.20;46.70;;;;;;5041850;28;20216;-71
2024/01/06 04:30:54;;;;;;;10.43;1.80;;;29.40;47.20;;;;;;5049296;28;20179;-69
2024/01/06 04:33:22;;;;;;;6.87;2.00;;;29.20;47.90;;;;;;5057461;28;20605;-71
2024/01/06 04:35:50;;;;;;;8.60;1.90;;;29.30;47.10;;;;;;5044583;28;20195;-71
2024/01/06 04:38:17;;;;;;;7.97;1.70;;;29.40;47.90;;;;;;5053413;28;20263;-71
2024/01/06 04:40:44;;;;;;;6.38;1.55;;;30.30;45.60;;;;;;5055100;28;20678;-70
2024/01/06 04:43:12;;;;;;;5.63;1.47;;;30.00;45.40;;;;;;5034754;28;20179;-69
2024/01/06 04:45:39;;;;;;;9.95;2.13;;;28.90;47.20;;;;;;5042048;28;20207;-71
2024/01/06 04:48:07;;;;;;;6.57;1.80;;;29.10;47.00;;;;;;5052652;28;20227;-71
2024/01/06 04:50:34;;;;;;;6.53;1.80;;;29.50;44.60;;;;;;5052522;28;20180;-71
2024/01/06 04:53:01;;;;;;;7.05;2.05;;;29.20;46.40;;;;;;5050902;28;20278;-72
2024/01/06 04:55:29;;;;;;;6.32;1.73;;;29.90;44.70;;;;;;5041007;28;20192;-72
2024/01/06 04:57:56;;;;;;;6.82;1.92;;;30.30;46.20;;;;;;5041433;28;20167;-72
2024/01/06 05:00:24;;;;;;;5.03;1.42;;;30.10;46.50;;;;;;5041440;28;20272;-71
2024/01/06 05:02:51;;;;;;;7.88;1.92;;;29.40;47.20;;;;;;5049941;28;20241;-70
2024/01/06 05:05:18;;;;;;;6.22;1.70;;;29.80;46.70;;;;;;5050587;28;20184;-71
2024/01/06 05:07:46;;;;;;;7.22;1.85;;;29.10;48.20;;;;;;5056492;28;20211;-69
2024/01/06 05:10:13;;;;;;;8.75;1.90;;;29.10;48.70;;;;;;5049279;28;20172;-71
2024/01/06 05:12:40;;;;;;;7.95;2.20;;;29.00;49.20;;;;;;5049183;28;20689;-73
2024/01/06 05:15:09;;;;;;;10.13;1.83;;;29.40;48.30;;;;;;5045707;28;20198;-68
2024/01/06 05:17:36;;;;;;;8.87;1.70;;;29.70;47.60;;;;;;5051865;28;20231;-70
2024/01/06 05:20:04;;;;;;;8.83;1.83;;;29.20;49.00;;;;;;5044246;28;20183;-71
2024/01/06 05:22:31;;;;;;;7.70;2.13;;;29.80;48.30;;;;;;5052777;28;20207;-70
2024/01/06 05:24:59;;;;;;;12.15;2.00;;;29.80;47.60;;;;;;5051731;28;20191;-70
2024/01/06 05:27:26;;;;;;;7.60;2.05;;;29.50;47.30;;;;;;5048779;28;20586;-70
2024/01/06 05:29:53;;;;;;;10.13;1.73;;;29.70;48.00;;;;;;5052889;28;20262;-70
2024/01/06 05:32:21;;;;;;;9.25;1.58;;;29.90;47.30;;;;;;5060228;28;20171;-69
2024/01/06 05:34:48;;;;;;;3.38;1.42;;;29.90;45.20;;;;;;5054824;28;20179;-70
2024/01/06 05:37:16;;;;;;;6.07;2.15;;;29.60;46.30;;;;;;5065859;28;20277;-69
2024/01/06 05:39:43;;;;;;;8.50;2.00;;;30.00;46.30;;;;;;5055427;28;20654;-70
2024/01/06 05:42:17;;;;;;;8.68;2.35;;;30.10;46.30;;;;;;5048585;28;20247;-69
2024/01/06 05:44:44;;;;;;;9.68;1.88;;;30.20;46.60;;;;;;5028926;28;20546;-69
2024/01/06 05:47:11;;;;;;;3.85;1.60;;;30.50;45.10;;;;;;5028743;28;20180;-69
2024/01/06 05:49:44;;;;;;;11.45;2.20;;;30.10;45.00;;;;;;5037001;28;20215;-68
2024/01/06 05:52:11;;;;;;;6.93;2.20;;;30.00;45.30;;;;;;5038875;28;20184;-68
2024/01/06 05:54:42;;;;;;;7.57;1.55;;;29.50;47.30;;;;;;5025494;28;20188;-68
2024/01/06 05:57:10;;;;;;;8.13;2.13;;;29.20;48.70;;;;;;5039078;28;20692;-70
2024/01/06 05:59:37;;;;;;;9.65;1.85;;;29.30;48.30;;;;;;5034810;28;20192;-70
2024/01/06 06:02:04;;;;;;;6.38;1.50;;;30.00;46.20;;;;;;5034841;28;20177;-69
2024/01/06 06:04:32;;;;;;;9.65;1.80;;;29.70;46.70;;;;;;5039823;28;20176;-68
2024/01/06 06:06:59;;;;;;;12.07;2.05;;;30.20;45.60;;;;;;5039639;28;20238;-69
2024/01/06 06:09:28;;;;;;;10.20;2.05;;;30.30;45.60;;;;;;5036148;28;20219;-70
2024/01/06 06:11:55;;;;;;;9.75;2.05;;;30.20;46.40;;;;;;5035505;28;20180;-67
2024/01/06 06:14:23;;;;;;;9.52;2.05;;;29.40;47.70;;;;;;5039350;28;20179;-69
2024/01/06 06:16:50;;;;;;;12.90;2.08;;;29.40;47.60;;;;;;5036919;28;20267;-69
2024/01/06 06:19:18;;;;;;;13.23;2.10;;;29.10;48.50;;;;;;5036215;28;20199;-67
2024/01/06 06:21:46;;;;;;;4.65;1.52;;;29.60;47.30;;;;;;5034496;28;20289;-71
2024/01/06 06:24:13;;;;;;;5.25;1.52;;;29.40;47.10;;;;;;5038053;28;20809;-68
2024/01/06 06:26:40;;;;;;;8.00;1.80;;;29.10;47.30;;;;;;5043717;28;20188;-70
2024/01/06 06:29:08;;;;;;;14.10;2.35;;;29.00;47.80;;;;;;5037373;28;20230;-70
2024/01/06 06:31:35;;;;;;;9.98;1.90;;;28.80;48.10;;;;;;5037305;28;20181;-69
2024/01/06 06:34:02;;;;;;;7.13;1.95;;;29.40;47.30;;;;;;5034517;28;20214;-69
2024/01/06 06:36:30;;;;;;;9.30;1.90;;;29.00;48.10;;;;;;5039017;28;20195;-71
2024/01/06 06:38:58;;;;;;;9.63;1.73;;;28.30;50.20;;;;;;5032726;28;20187;-68
2024/01/06 06:41:26;;;;;;;8.93;1.97;;;27.80;51.30;;;;;;5029465;28;20369;-70
2024/01/06 06:43:53;;;;;;;7.03;1.60;;;27.40;52.20;;;;;;5037653;28;20188;-71
2024/01/06 06:46:20;;;;;;;8.53;1.80;;;28.20;51.20;;;;;;5036341;28;20177;-70
2024/01/06 06:48:48;;;;;;;9.03;2.30;;;28.80;49.90;;;;;;5044245;28;20203;-68
2024/01/06 06:51:15;;;;;;;10.33;2.10;;;28.90;49.10;;;;;;5037123;28;20172;-69
2024/01/06 06:53:42;;;;;;;8.03;2.10;;;29.10;48.70;;;;;;5040863;28;20222;-70
2024/01/06 06:56:10;;;;;;;11.43;2.03;;;28.40;50.50;;;;;;5035591;28;20188;-68
2024/01/06 06:58:37;;;;;;;7.78;1.67;;;29.30;48.10;;;;;;5038649;28;20188;-71
2024/01/06 07:01:05;;;;;;;6.80;1.98;;;29.50;47.80;;;;;;5035898;28;20196;-70
2024/01/06 07:03:32;;;;;;;8.93;2.53;;;29.30;47.90;;;;;;5040482;28;20188;-70
2024/01/06 07:06:00;;;;;;;8.77;2.15;;;29.10;48.80;;;;;;5032618;28;20204;-69
2024/01/06 07:08:27;;;;;;;9.05;2.45;;;28.40;49.80;;;;;;5039281;28;20226;-70
2024/01/06 07:10:54;;;;;;;9.65;2.10;;;28.00;50.30;;;;;;5036580;28;20637;-70
2024/01/06 07:13:22;;;;;;;10.52;2.05;;;28.20;49.50;;;;;;5039394;28;20263;-68
2024/01/06 07:15:49;;;;;;;10.77;2.07;;;28.10;50.10;;;;;;5039377;28;20183;-70
2024/01/06 07:18:17;;;;;;;10.33;2.10;;;27.10;52.60;;;;;;5041173;28;20188;-71
2024/01/06 07:20:44;;;;;;;10.60;2.27;;;28.00;50.50;;;;;;5036988;28;20193;-70
2024/01/06 07:23:12;;;;;;;8.87;2.20;;;27.90;51.10;;;;;;5038286;28;20227;-69
2024/01/06 07:25:39;;;;;;;8.73;1.90;;;27.70;50.90;;;;;;5038430;28;20675;-70
2024/01/06 07:28:08;;;;;;;9.30;2.23;;;27.10;52.60;;;;;;5031613;28;20248;-71
2024/01/06 07:30:35;;;;;;;8.90;1.80;;;26.60;54.10;;;;;;5039593;28;20208;-68
2024/01/06 07:33:03;;;;;;;5.63;1.67;;;26.30;54.30;;;;;;5038305;28;20184;-70
2024/01/06 07:35:30;;;;;;;10.27;2.30;;;26.10;55.40;;;;;;5036235;28;20242;-70
2024/01/06 07:37:57;;;;;;;11.07;2.23;;;26.00;56.10;;;;;;5044365;28;20267;-71
2024/01/06 07:40:25;;;;;;;12.37;2.10;;;25.80;56.00;;;;;;5039902;28;20687;-70
2024/01/06 07:42:52;;;;;;;10.13;1.93;;;25.80;55.90;;;;;;5029149;28;20200;-69
2024/01/06 07:45:20;;;;;;;10.27;1.77;;;25.80;56.40;;;;;;5034210;28;20535;-70
2024/01/06 07:47:47;;;;;;;13.97;2.37;;;25.80;56.90;;;;;;5032092;28;20581;-69
2024/01/06 07:50:14;;;;;;;8.80;1.40;;;25.40;57.00;;;;;;5034371;28;20211;-69
2024/01/06 07:52:41;;;;;;;7.03;1.80;;;25.40;57.60;;;;;;5031278;28;20181;-70
2024/01/06 07:55:09;;;;;;;11.73;2.07;;;25.10;58.30;;;;;;5027005;28;20196;-70
2024/01/06 07:57:36;;;;;;;9.97;2.37;;;25.10;58.80;;;;;;5030208;28;20185;-69
2024/01/06 08:00:04;;;;;;;9.17;1.90;;;24.90;59.20;;;;;;5029380;28;20192;-68
2024/01/06 08:02:31;;;;;;;12.03;2.10;;;25.00;58.70;;;;;;5032309;28;20184;-68
2024/01/06 08:04:58;;;;;;;12.83;2.13;;;24.90;59.50;;;;;;5032171;28;20642;-69
2024/01/06 08:07:26;;;;;;;11.93;2.07;;;24.70;59.60;;;;;;5030613;28;20219;-69
2024/01/06 08:09:53;;;;;;;14.07;2.17;;;24.70;59.80;;;;;;5024052;28;20280;-69
2024/01/06 08:12:21;;;;;;;6.60;1.87;;;24.30;60.50;;;;;;5030988;28;20189;-70
2024/01/06 08:14:48;;;;;;;9.07;2.37;;;24.30;60.70;;;;;;5027568;28;20552;-69
2024/01/06 08:17:15;;;;;;;7.97;2.57;;;24.30;60.80;;;;;;5035744;28;20180;-70
2024/01/06 08:19:43;;;;;;;9.87;2.17;;;24.20;61.00;;;;;;5024142;28;20595;-69
2024/01/06 08:22:10;;;;;;;9.90;2.10;;;24.20;61.10;;;;;;5028342;28;20204;-70
2024/01/06 08:24:37;;;;;;;9.23;1.90;;;24.10;61.40;;;;;;5025605;28;20185;-68
2024/01/06 08:27:05;;;;;;;6.97;1.43;;;24.10;61.90;;;;;;5026527;28;20735;-69
2024/01/06 08:29:32;;;;;;;7.73;1.80;;;24.00;61.90;;;;;;5029745;28;20227;-69
2024/01/06 08:32:00;;;;;;;9.03;1.60;;;24.10;61.40;;;;;;5023929;28;20213;-70
2024/01/06 08:34:27;;;;;;;7.97;1.73;;;24.00;61.10;;;;;;5033177;28;20586;-69
2024/01/06 08:36:54;;;;;;;10.60;1.87;;;24.00;61.60;;;;;;5033253;28;20568;-69
2024/01/06 08:39:22;;;;;;;8.10;1.67;;;23.80;61.20;;;;;;5033903;28;20172;-68
2024/01/06 08:41:49;;;;;;;9.73;2.43;;;23.80;61.20;;;;;;5042715;28;20562;-69
2024/01/06 08:44:17;;;;;;;10.07;1.87;;;23.80;61.40;;;;;;5051801;28;20201;-70
2024/01/06 08:46:44;;;;;;;9.00;2.40;;;23.70;61.50;;;;;;5049442;28;20195;-68
2024/01/06 08:49:14;;;;;;;12.97;2.33;;;23.70;61.70;;;;;;5052824;28;20590;-70
2024/01/06 08:51:42;;;;;;;7.07;1.83;;;23.70;61.70;;;;;;5041238;28;20198;-69
2024/01/06 08:54:09;;;;;;;9.30;2.57;;;23.70;61.70;;;;;;5050814;28;20188;-69
2024/01/06 08:56:37;;;;;;;11.67;1.90;;;23.60;61.80;;;;;;5049910;28;20180;-68
2024/01/06 08:59:05;;;;;;;11.13;2.27;;;23.50;62.30;;;;;;5047508;28;20196;-68
2024/01/06 09:01:34;;;;;;;9.37;2.03;;;23.40;62.70;;;;;;5052364;28;20184;-68
2024/01/06 09:04:01;;;;;;;7.63;1.90;;;23.40;63.00;;;;;;5046366;28;20188;-68
2024/01/06 09:06:28;;;;;;;7.83;1.67;;;23.40;62.60;;;;;;5046329;28;20225;-69
2024/01/06 09:08:56;;;;;;;9.50;2.33;;;23.30;63.10;;;;;;5048209;28;20228;-69
2024/01/06 09:11:23;;;;;;;9.57;2.20;;;23.40;63.50;;;;;;5052991;28;20267;-69
2024/01/06 09:13:52;;;;;;;11.77;2.37;;;23.30;63.80;;;;;;5050031;28;20287;-69
2024/01/06 09:16:20;;;;;;;8.30;2.10;;;23.30;64.70;;;;;;5048538;28;20649;-69
2024/01/06 09:18:48;;;;;;;12.67;2.07;;;23.20;65.30;;;;;;5039378;28;20601;-68
2024/01/06 09:21:15;;;;;;;11.13;2.13;;;23.20;65.60;;;;;;5041684;28;20541;-69
2024/01/06 09:23:43;;;;;;;13.77;2.40;;;23.20;65.80;;;;;;5045075;28;20329;-69
2024/01/06 09:26:10;;;;;;;9.80;2.00;;;23.10;66.20;;;;;;5051028;28;20543;-69
2024/01/06 09:28:37;;;;;;;11.20;2.60;;;23.10;67.00;;;;;;5047586;28;20208;-69
2024/01/06 09:31:05;;;;;;;14.70;2.60;;;23.10;66.80;;;;;;5041959;28;20192;-68
2024/01/06 09:33:33;;;;;;;17.47;2.43;;;23.00;67.10;;;;;;5044853;28;20263;-68
2024/01/06 09:36:01;;;;;;;13.60;2.37;;;23.00;67.40;;;;;;5041188;28;20184;-68
2024/01/06 09:38:29;;;;;;;13.77;2.67;;;23.00;67.40;;;;;;5043182;28;20639;-68
2024/01/06 09:40:57;;;;;;;12.57;2.57;;;22.90;67.00;;;;;;5046114;28;20240;-69
2024/01/06 09:43:25;;;;;;;6.77;2.00;;;22.80;67.10;;;;;;5036904;28;20267;-68
2024/01/06 09:46:18;;;;;;;14.93;2.37;;;22.80;67.00;;;;;;5035544;28;20191;-68
2024/01/06 09:48:47;;;;;;;11.70;2.97;;;22.80;67.10;;;;;;5028127;28;20220;-70
2024/01/06 09:51:15;;;;;;;10.90;2.77;;;22.80;67.00;;;;;;5037025;28;20196;-70
2024/01/06 09:54:07;;;;;;;10.63;2.00;;;22.80;67.10;;;;;;5040657;28;20238;-71
2024/01/06 09:56:35;;;;;;;9.17;2.00;;;22.80;67.50;;;;;;5029583;28;20340;-69
2024/01/06 09:59:03;;;;;;;15.23;2.67;;;22.80;67.90;;;;;;5037649;28;20223;-70
2024/01/06 10:01:30;;;;;;;10.30;2.40;;;22.80;67.60;;;;;;5033366;28;20643;-69
2024/01/06 10:03:58;;;;;;;12.60;2.63;;;22.80;67.60;;;;;;5030908;28;20238;-70
2024/01/06 10:06:25;;;;;;;11.93;2.73;;;22.80;67.70;;;;;;5037921;28;20183;-70
2024/01/06 10:08:53;;;;;;;16.40;2.43;;;22.80;67.50;;;;;;5036883;28;20254;-69
2024/01/06 10:11:22;;;;;;;11.10;2.43;;;22.80;67.60;;;;;;5033344;28;20553;-69
2024/01/06 10:13:51;;;;;;;7.93;2.00;;;22.70;67.50;;;;;;5040350;28;20191;-70
2024/01/06 10:16:19;;;;;;;15.87;2.53;;;22.70;67.70;;;;;;5028977;28;20187;-68
2024/01/06 10:18:46;;;;;;;10.80;2.70;;;22.70;67.90;;;;;;5040000;28;20269;-70
2024/01/06 10:21:17;;;;;;;16.80;3.13;;;22.70;68.10;;;;;;5032291;28;20189;-70
2024/01/06 10:23:45;;;;;;;13.33;2.43;;;22.60;68.00;;;;;;5036850;28;20266;-70
2024/01/06 10:26:16;;;;;;;13.07;2.43;;;22.60;67.60;;;;;;5042500;28;20188;-70
2024/01/06 10:28:43;;;;;;;10.60;2.30;;;22.60;67.60;;;;;;5035921;28;20259;-69
2024/01/06 10:31:10;;;;;;;12.70;2.30;;;22.60;67.50;;;;;;5032020;28;20262;-69
2024/01/06 10:33:39;;;;;;;12.43;2.47;;;22.60;67.60;;;;;;5041515;28;20184;-69
2024/01/06 10:36:09;;;;;;;15.50;2.70;;;22.60;67.50;;;;;;5035991;28;20281;-70
2024/01/06 10:38:37;;;;;;;13.23;2.57;;;22.50;67.70;;;;;;5034839;28;20199;-69
2024/01/06 10:41:09;;;;;;;9.67;2.17;;;22.50;67.80;;;;;;5039834;28;20219;-71
2024/01/06 10:43:43;;;;;;;12.27;2.33;;;22.50;67.90;;;;;;5049031;28;20192;-69
2024/01/06 10:46:11;;;;;;;14.03;2.50;;;22.50;68.20;;;;;;5048426;28;20236;-69
2024/01/06 10:48:42;;;;;;;11.93;2.30;;;22.40;68.20;;;;;;5050759;28;20204;-70
2024/01/06 10:51:14;;;;;;;10.23;2.83;;;22.40;68.20;;;;;;5051117;28;20187;-70
2024/01/06 10:53:43;;;;;;;12.87;2.30;;;22.40;68.40;;;;;;5046519;28;20818;-70
2024/01/06 10:56:11;;;;;;;12.47;2.60;;;22.40;68.20;;;;;;5055163;28;20184;-70
2024/01/06 10:58:44;;;;;;;12.90;2.63;;;22.40;68.40;;;;;;5048638;28;20180;-70
2024/01/06 11:01:12;;;;;;;13.30;2.53;;;22.40;68.60;;;;;;5048035;28;20532;-71
2024/01/06 11:03:40;;;;;;;9.60;2.17;;;22.40;68.60;;;;;;5054157;28;20183;-70
2024/01/06 11:06:11;;;;;;;11.03;2.43;;;22.40;68.70;;;;;;5053400;28;20192;-70
2024/01/06 11:09:14;;;;;;;12.67;3.20;;;22.40;68.70;;;;;;5060307;28;20265;-71
2024/01/06 11:11:42;;;;;;;12.23;2.40;;;22.40;68.90;;;;;;5039927;28;20712;-69
2024/01/06 11:14:24;;;;;;;10.33;2.23;;;22.30;68.90;;;;;;5055927;28;20188;-69
2024/01/06 11:16:52;;;;;;;9.73;2.33;;;22.30;68.60;;;;;;5061765;28;20256;-69
2024/01/06 11:19:38;;;;;;;11.87;2.43;;;22.30;68.60;;;;;;5058704;28;20188;-69
2024/01/06 11:22:36;;;;;;;14.10;2.57;;;22.30;68.70;;;;;;5067252;28;20210;-69
2024/01/06 11:25:07;;;;;;;15.43;2.10;;;22.30;69.00;;;;;;5064822;28;20184;-69
2024/01/06 11:27:36;;;;;;;10.50;2.73;;;22.30;68.90;;;;;;5052255;28;20638;-71
2024/01/06 11:30:07;;;;;;;11.90;2.40;;;22.30;68.90;;;;;;5053233;28;20192;-69
2024/01/06 11:32:38;;;;;;;13.90;3.10;;;22.30;68.90;;;;;;5065015;28;20171;-70
2024/01/06 11:35:13;;;;;;;13.97;2.47;;;22.30;68.90;;;;;;5053894;28;20192;-70
2024/01/06 11:37:41;;;;;;;14.40;2.40;;;22.30;68.80;;;;;;5061488;28;20191;-69
2024/01/06 11:40:16;;;;;;;10.20;2.27;;;22.30;68.30;;;;;;5063600;28;20206;-69
2024/01/06 11:42:44;;;;;;;13.00;2.67;;;22.20;68.50;;;;;;5058400;28;20223;-69
2024/01/06 11:45:13;;;;;;;14.13;2.50;;;22.30;68.50;;;;;;5063851;28;20171;-69
2024/01/06 11:47:41;;;;;;;8.97;2.50;;;22.30;68.80;;;;;;5052867;28;20220;-70
2024/01/06 11:50:11;;;;;;;12.53;2.23;;;22.30;68.90;;;;;;5052428;28;20209;-71
2024/01/06 11:52:39;;;;;;;9.23;1.90;;;22.20;68.80;;;;;;5067570;28;20180;-70
2024/01/06 11:55:10;;;;;;;18.77;3.10;;;22.20;68.70;;;;;;5055289;28;20291;-70
2024/01/06 11:57:37;;;;;;;10.53;2.30;;;22.20;69.00;;;;;;5063602;28;20318;-70
2024/01/06 12:00:06;;;;;;;15.73;2.40;;;22.20;68.80;;;;;;5056318;28;20286;-70
2024/01/06 12:02:33;;;;;;;13.90;2.50;;;22.20;68.80;;;;;;5043879;28;20652;-70
2024/01/06 12:05:01;;;;;;;14.10;2.20;;;22.20;68.80;;;;;;5060185;28;20196;-71
2024/01/06 12:07:29;;;;;;;15.90;2.63;;;22.20;69.00;;;;;;5051661;28;20635;-71
2024/01/06 12:10:04;;;;;;;13.00;2.10;;;22.20;68.90;;;;;;5047838;28;20250;-70
2024/01/06 12:12:32;;;;;;;14.73;2.67;;;22.20;68.70;;;;;;5059480;28;20194;-70
2024/01/06 12:14:59;;;;;;;9.57;2.17;;;22.20;68.70;;;;;;5054691;28;20181;-70
2024/01/06 12:17:30;;;;;;;10.63;1.60;;;22.10;68.50;;;;;;5057673;28;20187;-70
2024/01/06 12:19:57;;;;;;;12.73;2.10;;;22.10;68.50;;;;;;5060079;28;20240;-71
2024/01/06 12:22:26;;;;;;;12.67;2.40;;;22.10;68.90;;;;;;5062620;28;20600;-71
2024/01/06 12:24:54;;;;;;;16.53;2.70;;;22.10;68.50;;;;;;5061233;28;20196;-70
2024/01/06 12:27:22;;;;;;;14.50;2.27;;;22.10;68.60;;;;;;5038182;28;20275;-69
2024/01/06 12:29:49;;;;;;;13.57;2.10;;;22.10;69.00;;;;;;5050451;28;20195;-71
2024/01/06 12:32:18;;;;;;;11.57;2.60;;;22.00;68.70;;;;;;5045497;28;20268;-69
2024/01/06 12:34:46;;;;;;;11.30;2.07;;;22.10;68.10;;;;;;5052884;28;20228;-69
2024/01/06 12:37:14;;;;;;;8.37;2.13;;;22.10;67.70;;;;;;5052338;28;20194;-69
2024/01/06 12:39:42;;;;;;;9.80;2.23;;;22.00;67.90;;;;;;5058387;28;20556;-70
2024/01/06 12:42:10;;;;;;;9.97;1.90;;;22.10;68.10;;;;;;5052056;28;20230;-70
2024/01/06 12:44:39;;;;;;;12.10;2.20;;;22.10;68.20;;;;;;5047202;28;20184;-69
2024/01/06 12:47:12;;;;;;;8.50;2.20;;;22.10;68.30;;;;;;5044823;28;20191;-69